createdAt,value
2018-09-15T00:00:48.556Z,5.90
2018-09-15T00:03:17.103Z,5.63
2018-09-15T00:05:45.713Z,5.50
2018-09-15T00:08:14.634Z,5.57
2018-09-15T00:10:43.174Z,4.97
2018-09-15T00:13:12.110Z,5.57
2018-09-15T00:15:40.696Z,5.97
2018-09-15T00:18:12.861Z,5.60
2018-09-15T00:20:42.602Z,5.20
2018-09-15T00:23:11.879Z,5.30
2018-09-15T00:25:41.222Z,5.53
2018-09-15T00:28:10.652Z,5.57
2018-09-15T00:30:39.284Z,5.67
2018-09-15T00:33:08.045Z,5.50
2018-09-15T00:35:36.663Z,5.20
2018-09-15T00:38:05.234Z,5.23
2018-09-15T00:40:33.806Z,6.20
2018-09-15T00:43:02.384Z,6.20
2018-09-15T00:45:30.957Z,6.27
2018-09-15T00:47:59.489Z,6.20
2018-09-15T00:50:28.160Z,6.23
2018-09-15T00:52:56.758Z,5.97
2018-09-15T00:55:25.465Z,6.47
2018-09-15T00:57:54.037Z,6.63
2018-09-15T01:00:22.618Z,6.47
2018-09-15T01:02:51.163Z,6.70
2018-09-15T01:05:19.701Z,6.20
2018-09-15T01:07:48.249Z,6.57
2018-09-15T01:10:16.789Z,6.97
2018-09-15T01:12:45.292Z,7.77
2018-09-15T01:15:13.806Z,7.70
2018-09-15T01:17:42.366Z,7.33
2018-09-15T01:20:11.009Z,8.50
2018-09-15T01:22:39.597Z,8.60
2018-09-15T01:25:08.183Z,8.30
2018-09-15T01:27:36.718Z,7.57
2018-09-15T01:30:05.367Z,7.67
2018-09-15T01:32:33.874Z,8.87
2018-09-15T01:35:02.485Z,8.47
2018-09-15T01:37:31.037Z,8.10
2018-09-15T01:39:59.609Z,8.97
2018-09-15T01:42:28.186Z,10.57
2018-09-15T01:44:56.708Z,10.43
2018-09-15T01:47:25.222Z,11.10
2018-09-15T01:49:53.817Z,11.13
2018-09-15T01:52:22.369Z,11.00
2018-09-15T01:54:50.929Z,11.00
2018-09-15T01:57:19.590Z,11.53
2018-09-15T01:59:48.185Z,11.20
2018-09-15T02:02:16.735Z,11.30
2018-09-15T02:04:45.399Z,11.03
2018-09-15T02:07:13.977Z,12.67
2018-09-15T02:09:42.581Z,10.93
2018-09-15T02:12:11.126Z,10.90
2018-09-15T02:14:39.681Z,11.27
2018-09-15T02:17:08.665Z,11.03
2018-09-15T02:19:37.223Z,10.90
2018-09-15T02:22:05.844Z,10.73
2018-09-15T02:24:34.420Z,10.70
2018-09-15T02:27:03.069Z,11.10
2018-09-15T02:29:31.598Z,11.00
2018-09-15T02:32:00.109Z,10.73
2018-09-15T02:34:28.632Z,11.77
2018-09-15T02:36:57.132Z,11.70
2018-09-15T02:39:25.694Z,10.97
2018-09-15T02:41:54.330Z,10.83
2018-09-15T02:44:22.878Z,11.90
2018-09-15T02:46:51.466Z,12.80
2018-09-15T02:49:20.538Z,12.40
2018-09-15T02:51:49.116Z,11.97
2018-09-15T02:54:17.657Z,11.80
2018-09-15T02:56:46.242Z,11.67
2018-09-15T02:59:14.913Z,12.20
2018-09-15T03:01:43.443Z,12.13
2018-09-15T03:04:12.005Z,11.07
2018-09-15T03:06:40.561Z,11.63
2018-09-15T03:09:10.330Z,11.57
2018-09-15T03:11:38.966Z,11.73
2018-09-15T03:14:07.515Z,11.77
2018-09-15T03:16:37.440Z,9.87
2018-09-15T03:19:05.997Z,9.87
2018-09-15T03:21:34.601Z,9.97
2018-09-15T03:24:03.428Z,9.97
2018-09-15T03:26:31.961Z,9.77
2018-09-15T03:29:00.620Z,9.67
2018-09-15T03:31:29.131Z,8.80
2018-09-15T03:33:57.662Z,8.37
2018-09-15T03:36:26.246Z,8.53
2018-09-15T03:38:54.765Z,8.13
2018-09-15T03:41:23.353Z,8.93
2018-09-15T03:43:51.866Z,8.17
2018-09-15T03:46:20.424Z,8.30
2018-09-15T03:48:49.970Z,8.37
2018-09-15T03:51:18.481Z,8.97
2018-09-15T03:53:47.157Z,9.27
2018-09-15T03:56:15.651Z,10.23
2018-09-15T03:58:44.221Z,9.03
2018-09-15T04:01:12.832Z,9.17
2018-09-15T04:03:41.382Z,9.43
2018-09-15T04:06:10.198Z,9.93
2018-09-15T04:08:39.668Z,10.20
2018-09-15T04:11:08.210Z,10.17
2018-09-15T04:13:36.780Z,10.50
2018-09-15T04:16:05.319Z,10.20
2018-09-15T04:18:34.010Z,10.13
2018-09-15T04:21:02.543Z,10.17
2018-09-15T04:23:31.122Z,11.50
2018-09-15T04:25:59.659Z,11.47
2018-09-15T04:28:28.244Z,11.90
2018-09-15T04:30:56.741Z,11.20
2018-09-15T04:33:25.975Z,11.20
2018-09-15T04:35:54.506Z,11.70
2018-09-15T04:38:23.060Z,11.37
2018-09-15T04:40:51.569Z,10.70
2018-09-15T04:43:20.099Z,11.83
2018-09-15T04:45:48.982Z,12.80
2018-09-15T04:48:17.518Z,12.83
2018-09-15T04:50:46.072Z,12.27
2018-09-15T04:53:14.610Z,12.87
2018-09-15T04:55:43.171Z,12.30
2018-09-15T04:58:11.716Z,12.57
2018-09-15T05:00:41.316Z,12.63
2018-09-15T05:03:09.918Z,11.47
2018-09-15T05:05:38.471Z,12.13
2018-09-15T05:08:07.006Z,12.20
2018-09-15T05:10:35.565Z,13.27
2018-09-15T05:13:04.143Z,13.73
2018-09-15T05:15:32.650Z,13.10
2018-09-15T05:18:01.213Z,13.90
2018-09-15T05:20:29.763Z,13.37
2018-09-15T05:22:58.282Z,14.00
2018-09-15T05:25:26.893Z,13.80
2018-09-15T05:27:55.830Z,14.17
2018-09-15T05:30:24.396Z,14.43
2018-09-15T05:32:52.917Z,14.07
2018-09-15T05:35:21.417Z,13.73
2018-09-15T05:37:49.993Z,13.27
2018-09-15T05:40:18.533Z,13.40
2018-09-15T05:42:47.977Z,12.77
2018-09-15T05:45:16.470Z,11.93
2018-09-15T05:47:44.974Z,12.20
2018-09-15T05:50:13.877Z,12.30
2018-09-15T05:52:42.376Z,10.50
2018-09-15T05:55:10.888Z,11.60
2018-09-15T05:57:39.429Z,11.53
2018-09-15T06:00:08.106Z,9.57
2018-09-15T06:02:36.646Z,9.63
2018-09-15T06:05:05.194Z,10.47
2018-09-15T06:07:33.804Z,8.67
2018-09-15T06:10:02.282Z,9.33
2018-09-15T06:12:30.798Z,9.00
2018-09-15T06:14:59.366Z,8.50
2018-09-15T06:17:27.869Z,7.97
2018-09-15T06:19:56.370Z,7.83
2018-09-15T06:22:24.957Z,7.70
2018-09-15T06:24:53.493Z,8.30
2018-09-15T06:27:22.029Z,8.00
2018-09-15T06:29:50.538Z,7.87
2018-09-15T06:32:19.130Z,7.70
2018-09-15T06:34:47.670Z,8.23
2018-09-15T06:37:16.215Z,9.70
2018-09-15T06:39:44.790Z,9.20
2018-09-15T06:42:13.333Z,11.33
2018-09-15T06:44:41.950Z,12.13
2018-09-15T06:47:10.578Z,12.17
2018-09-15T06:49:39.145Z,13.07
2018-09-15T06:52:08.482Z,13.50
2018-09-15T06:54:37.054Z,14.43
2018-09-15T06:57:05.579Z,14.20
2018-09-15T06:59:34.188Z,14.53
2018-09-15T07:02:02.725Z,15.40
2018-09-15T07:04:31.255Z,15.47
2018-09-15T07:06:59.792Z,15.33
2018-09-15T07:09:28.282Z,16.53
2018-09-15T07:11:56.781Z,15.40
2018-09-15T07:14:25.350Z,15.13
2018-09-15T07:16:53.910Z,16.07
2018-09-15T07:19:22.432Z,15.30
2018-09-15T07:21:51.016Z,14.33
2018-09-15T07:24:19.533Z,13.10
2018-09-15T07:26:48.596Z,11.60
2018-09-15T07:29:17.116Z,10.43
2018-09-15T07:31:45.678Z,10.83
2018-09-15T07:34:14.224Z,10.90
2018-09-15T07:36:42.765Z,11.60
2018-09-15T07:39:11.955Z,12.07
2018-09-15T07:41:40.821Z,11.30
2018-09-15T07:44:09.586Z,11.73
2018-09-15T07:46:38.077Z,11.07
2018-09-15T07:49:06.631Z,8.90
2018-09-15T07:51:35.302Z,6.97
2018-09-15T07:54:03.855Z,6.37
2018-09-15T07:56:32.394Z,5.10
2018-09-15T07:59:00.925Z,4.07
2018-09-15T08:01:29.507Z,4.07
2018-09-15T08:03:58.080Z,3.57
2018-09-15T08:06:26.577Z,3.17
2018-09-15T08:08:55.869Z,3.70
2018-09-15T08:11:24.401Z,3.43
2018-09-15T08:13:52.973Z,4.60
2018-09-15T08:16:21.577Z,5.37
2018-09-15T08:18:50.161Z,7.10
2018-09-15T08:21:18.684Z,7.27
2018-09-15T08:23:47.221Z,8.20
2018-09-15T08:26:15.913Z,9.33
2018-09-15T08:28:44.660Z,9.63
2018-09-15T08:31:14.052Z,10.00
2018-09-15T08:33:42.572Z,9.93
2018-09-15T08:36:11.100Z,10.70
2018-09-15T08:38:39.595Z,10.33
2018-09-15T08:41:08.177Z,10.37
2018-09-15T08:43:36.701Z,10.97
2018-09-15T08:46:05.206Z,11.37
2018-09-15T08:48:33.837Z,10.93
2018-09-15T08:51:02.367Z,11.30
2018-09-15T08:53:30.965Z,12.10
2018-09-15T08:55:59.530Z,10.70
2018-09-15T08:58:28.062Z,11.33
2018-09-15T09:00:56.571Z,10.80
2018-09-15T09:03:25.238Z,10.73
2018-09-15T09:05:53.725Z,11.77
2018-09-15T09:08:22.237Z,10.80
2018-09-15T09:10:50.786Z,12.53
2018-09-15T09:13:19.326Z,12.83
2018-09-15T09:15:47.870Z,14.90
2018-09-15T09:18:16.365Z,16.13
2018-09-15T09:20:44.865Z,15.27
2018-09-15T09:23:14.310Z,17.60
2018-09-15T09:25:42.964Z,14.70
2018-09-15T09:28:11.615Z,14.47
2018-09-15T09:30:40.137Z,16.47
2018-09-15T09:33:08.779Z,14.80
2018-09-15T09:35:37.393Z,13.77
2018-09-15T09:38:05.933Z,13.13
2018-09-15T09:40:34.395Z,13.43
2018-09-15T09:43:02.931Z,13.40
2018-09-15T09:45:31.605Z,13.30
2018-09-15T09:48:00.192Z,12.20
2018-09-15T09:50:28.755Z,12.77
2018-09-15T09:52:57.815Z,13.00
2018-09-15T09:55:26.339Z,17.17
2018-09-15T09:57:54.897Z,22.27
2018-09-15T10:00:29.489Z,25.03
2018-09-15T10:02:58.038Z,26.87
2018-09-15T10:05:26.559Z,26.13
2018-09-15T10:07:55.049Z,27.20
2018-09-15T10:10:23.594Z,26.70
2018-09-15T10:12:52.103Z,26.20
2018-09-15T10:15:20.666Z,22.57
2018-09-15T10:17:49.174Z,24.40
2018-09-15T10:20:17.731Z,24.13
2018-09-15T10:22:46.335Z,21.50
2018-09-15T10:25:14.973Z,18.80
2018-09-15T10:27:43.501Z,15.50
2018-09-15T10:30:12.361Z,13.27
2018-09-15T10:32:40.901Z,11.77
2018-09-15T10:35:09.429Z,10.70
2018-09-15T10:37:37.906Z,11.13
2018-09-15T10:40:06.645Z,9.87
2018-09-15T10:42:35.142Z,10.77
2018-09-15T10:45:03.640Z,9.00
2018-09-15T10:47:32.208Z,9.43
2018-09-15T10:50:00.777Z,9.00
2018-09-15T10:52:29.337Z,8.37
2018-09-15T10:54:57.833Z,8.43
2018-09-15T10:57:26.409Z,9.00
2018-09-15T10:59:54.877Z,9.30
2018-09-15T11:02:23.400Z,8.73
2018-09-15T11:04:51.907Z,6.37
2018-09-15T11:07:20.441Z,6.00
2018-09-15T11:09:48.928Z,6.73
2018-09-15T11:12:17.465Z,4.90
2018-09-15T11:14:45.929Z,5.00
2018-09-15T11:17:14.386Z,5.03
2018-09-15T11:19:42.897Z,4.63
2018-09-15T11:22:11.379Z,4.60
2018-09-15T11:24:39.857Z,4.67
2018-09-15T11:27:08.409Z,4.60
2018-09-15T11:29:37.013Z,5.13
2018-09-15T11:32:05.784Z,5.30
2018-09-15T11:34:34.378Z,5.60
2018-09-15T11:37:02.881Z,5.77
2018-09-15T11:39:31.425Z,5.00
2018-09-15T11:42:00.092Z,5.80
2018-09-15T11:44:28.635Z,5.33
2018-09-15T11:46:57.258Z,5.50
2018-09-15T11:49:25.766Z,6.90
2018-09-15T11:51:54.395Z,6.20
2018-09-15T11:54:22.954Z,6.27
2018-09-15T11:56:51.502Z,6.23
2018-09-15T11:59:20.353Z,5.23
2018-09-15T12:01:49.129Z,6.17
2018-09-15T12:04:17.678Z,5.63
2018-09-15T12:06:46.311Z,6.87
2018-09-15T12:09:14.845Z,5.57
2018-09-15T12:11:43.477Z,5.57
2018-09-15T12:14:12.391Z,4.70
2018-09-15T12:16:40.850Z,4.90
2018-09-15T12:19:09.559Z,4.63
2018-09-15T12:21:38.471Z,4.87
2018-09-15T12:24:07.041Z,5.40
2018-09-15T12:26:35.656Z,5.50
2018-09-15T12:29:04.261Z,5.10
2018-09-15T12:31:32.812Z,5.20
2018-09-15T12:34:01.411Z,4.77
2018-09-15T12:36:29.976Z,5.27
2018-09-15T12:38:58.561Z,5.40
2018-09-15T12:41:27.167Z,4.97
2018-09-15T12:43:55.830Z,4.93
2018-09-15T12:46:24.498Z,5.20
2018-09-15T12:48:53.651Z,4.77
2018-09-15T12:51:22.222Z,5.20
2018-09-15T12:53:50.844Z,5.90
2018-09-15T12:56:19.397Z,5.97
2018-09-15T12:58:47.971Z,6.07
2018-09-15T13:01:16.554Z,6.17
2018-09-15T13:03:45.819Z,5.73
2018-09-15T13:06:14.528Z,6.43
2018-09-15T13:08:43.109Z,6.37
2018-09-15T13:11:11.727Z,6.30
2018-09-15T13:13:40.285Z,6.20
2018-09-15T13:16:08.892Z,4.93
2018-09-15T13:18:37.533Z,5.60
2018-09-15T13:21:06.299Z,4.90
2018-09-15T13:23:34.918Z,4.87
2018-09-15T13:26:03.677Z,5.00
2018-09-15T13:28:32.802Z,5.03
2018-09-15T13:31:01.820Z,5.23
2018-09-15T13:33:30.393Z,4.33
2018-09-15T13:35:59.256Z,4.57
2018-09-15T13:38:27.972Z,3.80
2018-09-15T13:40:56.837Z,4.17
2018-09-15T13:43:25.883Z,4.77
2018-09-15T13:45:54.486Z,4.70
2018-09-15T13:48:23.125Z,5.27
2018-09-15T13:50:51.685Z,5.60
2018-09-15T13:53:21.466Z,8.57
2018-09-15T13:55:49.956Z,6.70
2018-09-15T13:58:18.507Z,7.13
2018-09-15T14:00:47.093Z,5.07
2018-09-15T14:03:15.654Z,5.10
2018-09-15T14:05:44.314Z,4.40
2018-09-15T14:08:12.952Z,4.10
2018-09-15T14:10:41.544Z,4.33
2018-09-15T14:13:10.094Z,4.50
2018-09-15T14:15:38.679Z,4.17
2018-09-15T14:18:07.258Z,4.00
2018-09-15T14:20:35.805Z,4.20
2018-09-15T14:23:04.465Z,4.57
2018-09-15T14:25:33.026Z,4.57
2018-09-15T14:28:01.607Z,4.40
2018-09-15T14:30:30.211Z,4.90
2018-09-15T14:32:58.752Z,4.93
2018-09-15T14:35:27.309Z,4.67
2018-09-15T14:37:56.079Z,4.43
2018-09-15T14:40:24.632Z,3.53
2018-09-15T14:42:53.173Z,3.60
2018-09-15T14:45:21.768Z,3.20
2018-09-15T14:47:50.454Z,3.30
2018-09-15T14:50:19.008Z,3.87
2018-09-15T14:52:47.585Z,3.63
2018-09-15T14:55:16.230Z,3.13
2018-09-15T14:57:44.725Z,3.67
2018-09-15T15:00:13.322Z,3.37
2018-09-15T15:02:43.921Z,3.80
2018-09-15T15:05:12.630Z,3.90
2018-09-15T15:07:41.204Z,3.90
2018-09-15T15:10:09.754Z,3.83
2018-09-15T15:12:38.313Z,4.00
2018-09-15T15:15:06.892Z,4.17
2018-09-15T15:17:35.589Z,4.50
2018-09-15T15:20:04.553Z,4.50
2018-09-15T15:22:33.173Z,4.83
2018-09-15T15:25:03.010Z,5.03
2018-09-15T15:27:31.554Z,5.47
2018-09-15T15:30:00.226Z,4.80
2018-09-15T15:32:28.813Z,5.30
2018-09-15T15:34:58.028Z,5.53
2018-09-15T15:37:26.829Z,5.00
2018-09-15T15:39:55.378Z,5.40
2018-09-15T15:42:23.998Z,5.33
2018-09-15T15:44:52.749Z,5.47
2018-09-15T15:47:21.314Z,5.33
2018-09-15T15:49:49.940Z,5.57
2018-09-15T15:52:18.524Z,5.20
2018-09-15T15:54:47.139Z,6.20
2018-09-15T15:57:15.751Z,5.50
2018-09-15T15:59:44.401Z,5.93
2018-09-15T16:02:12.984Z,5.70
2018-09-15T16:04:42.144Z,6.17
2018-09-15T16:07:10.791Z,6.17
2018-09-15T16:09:39.400Z,5.80
2018-09-15T16:12:07.995Z,6.13
2018-09-15T16:14:36.587Z,5.90
2018-09-15T16:17:05.236Z,6.03
2018-09-15T16:19:33.816Z,6.27
2018-09-15T16:22:02.404Z,6.53
2018-09-15T16:24:31.385Z,6.60
2018-09-15T16:27:00.195Z,6.80
2018-09-15T16:29:28.869Z,6.30
2018-09-15T16:31:57.522Z,7.60
2018-09-15T16:34:26.452Z,8.33
2018-09-15T16:36:55.096Z,8.43
2018-09-15T16:39:24.042Z,8.73
2018-09-15T16:41:52.861Z,8.53
2018-09-15T16:44:21.660Z,7.37
2018-09-15T16:46:50.479Z,7.63
2018-09-15T16:49:19.346Z,8.00
2018-09-15T16:51:48.175Z,7.50
2018-09-15T16:54:16.965Z,8.07
2018-09-15T16:56:46.393Z,8.40
2018-09-15T16:59:15.192Z,7.80
2018-09-15T17:01:43.959Z,8.10
2018-09-15T17:04:12.562Z,8.73
2018-09-15T17:06:41.156Z,8.80
2018-09-15T17:09:11.027Z,8.17
2018-09-15T17:11:39.666Z,8.00
2018-09-15T17:14:08.418Z,8.93
2018-09-15T17:16:37.983Z,8.50
2018-09-15T17:19:06.617Z,8.63
2018-09-15T17:21:35.453Z,8.70
2018-09-15T17:24:04.060Z,8.53
2018-09-15T17:26:32.760Z,8.80
2018-09-15T17:29:01.357Z,7.97
2018-09-15T17:31:29.992Z,8.40
2018-09-15T17:33:58.589Z,7.47
2018-09-15T17:36:27.417Z,8.13
2018-09-15T17:38:56.924Z,8.10
2018-09-15T17:41:25.571Z,7.33
2018-09-15T17:43:55.049Z,7.23
2018-09-15T17:46:23.764Z,8.03
2018-09-15T17:48:52.396Z,7.50
2018-09-15T17:51:21.000Z,7.60
2018-09-15T17:53:49.652Z,7.03
2018-09-15T17:56:18.277Z,7.20
2018-09-15T17:58:48.091Z,7.50
2018-09-15T18:01:17.209Z,8.30
2018-09-15T18:03:46.183Z,10.17
2018-09-15T18:06:14.895Z,11.90
2018-09-15T18:08:43.467Z,12.07
2018-09-15T18:11:12.255Z,11.20
2018-09-15T18:13:40.836Z,10.83
2018-09-15T18:16:09.492Z,11.43
2018-09-15T18:18:38.639Z,11.03
2018-09-15T18:21:07.272Z,11.23
2018-09-15T18:23:35.991Z,11.40
2018-09-15T18:26:05.622Z,11.40
2018-09-15T18:28:34.374Z,11.00
2018-09-15T18:31:03.026Z,10.83
2018-09-15T18:33:31.676Z,10.70
2018-09-15T18:36:00.396Z,10.30
2018-09-15T18:38:29.038Z,9.93
2018-09-15T18:40:57.673Z,10.80
2018-09-15T18:43:26.245Z,10.03
2018-09-15T18:45:55.260Z,10.57
2018-09-15T18:48:23.873Z,10.87
2018-09-15T18:50:52.465Z,11.33
2018-09-15T18:53:21.052Z,11.70
2018-09-15T18:55:49.678Z,11.63
2018-09-15T18:58:18.299Z,11.30
2018-09-15T19:00:46.943Z,12.37
2018-09-15T19:03:15.988Z,12.63
2018-09-15T19:05:45.721Z,12.57
2018-09-15T19:08:14.627Z,11.23
2018-09-15T19:10:43.685Z,12.57
2018-09-15T19:13:12.885Z,12.57
2018-09-15T19:15:41.509Z,11.90
2018-09-15T19:18:10.171Z,11.80
2018-09-15T19:20:38.771Z,11.90
2018-09-15T19:23:07.412Z,11.20
2018-09-15T19:25:37.124Z,11.77
2018-09-15T19:28:05.782Z,11.60
2018-09-15T19:30:34.516Z,11.10
2018-09-15T19:33:03.125Z,11.53
2018-09-15T19:35:31.650Z,11.23
2018-09-15T19:38:00.281Z,11.20
2018-09-15T19:40:28.900Z,12.33
2018-09-15T19:42:57.476Z,11.83
2018-09-15T19:45:26.169Z,12.23
2018-09-15T19:47:54.782Z,12.27
2018-09-15T19:50:23.408Z,13.27
2018-09-15T19:52:51.972Z,12.70
2018-09-15T19:55:20.723Z,12.63
2018-09-15T19:57:49.616Z,13.10
2018-09-15T20:00:19.666Z,13.37
2018-09-15T20:02:48.374Z,13.00
2018-09-15T20:05:18.249Z,13.73
2018-09-15T20:07:46.886Z,13.53
2018-09-15T20:10:15.503Z,14.73
2018-09-15T20:12:44.145Z,14.83
2018-09-15T20:15:27.005Z,14.13
2018-09-15T20:17:54.477Z,15.10
2018-09-15T20:20:22.603Z,15.13
2018-09-15T20:22:52.604Z,15.00
2018-09-15T20:25:21.423Z,15.20
2018-09-15T20:27:51.545Z,14.50
2018-09-15T20:30:20.151Z,13.90
2018-09-15T20:32:48.762Z,14.57
2018-09-15T20:35:17.629Z,16.50
2018-09-15T20:37:46.262Z,15.73
2018-09-15T20:40:14.939Z,16.00
2018-09-15T20:42:43.591Z,15.20
2018-09-15T20:45:12.215Z,14.37
2018-09-15T20:47:40.751Z,14.47
2018-09-15T20:50:09.791Z,13.77
2018-09-15T20:52:38.386Z,14.63
2018-09-15T20:55:07.570Z,13.50
2018-09-15T20:57:36.229Z,14.40
2018-09-15T21:00:05.869Z,14.03
2018-09-15T21:02:34.489Z,14.27
2018-09-15T21:05:03.056Z,13.97
2018-09-15T21:07:31.711Z,14.10
2018-09-15T21:10:00.306Z,13.80
2018-09-15T21:12:28.921Z,13.90
2018-09-15T21:14:57.635Z,14.57
2018-09-15T21:17:26.295Z,15.13
2018-09-15T21:19:54.779Z,14.90
2018-09-15T21:22:23.368Z,14.73
2018-09-15T21:24:51.954Z,14.73
2018-09-15T21:27:20.722Z,14.40
2018-09-15T21:29:49.340Z,14.43
2018-09-15T21:32:18.811Z,15.27
2018-09-15T21:34:47.387Z,15.83
2018-09-15T21:37:16.016Z,15.10
2018-09-15T21:39:44.587Z,15.47
2018-09-15T21:42:13.241Z,15.17
2018-09-15T21:44:41.825Z,14.93
2018-09-15T21:47:10.482Z,15.03
2018-09-15T21:49:39.307Z,14.93
2018-09-15T21:52:08.084Z,15.93
2018-09-15T21:54:36.715Z,15.90
2018-09-15T21:57:05.344Z,16.53
2018-09-15T21:59:33.996Z,17.13
2018-09-15T22:02:02.686Z,16.33
2018-09-15T22:04:31.356Z,16.97
2018-09-15T22:06:59.981Z,16.23
2018-09-15T22:09:28.646Z,17.17
2018-09-15T22:11:57.805Z,17.23
2018-09-15T22:14:26.362Z,17.47
2018-09-15T22:16:55.034Z,17.37
2018-09-15T22:19:23.799Z,17.33
2018-09-15T22:21:52.421Z,17.77
2018-09-15T22:24:21.028Z,17.07
2018-09-15T22:26:49.672Z,17.67
2018-09-15T22:29:18.300Z,18.50
2018-09-15T22:31:47.064Z,16.13
2018-09-15T22:34:15.733Z,17.23
2018-09-15T22:36:44.387Z,17.53
2018-09-15T22:39:13.213Z,16.97
2018-09-15T22:41:41.847Z,17.90
2018-09-15T22:44:10.608Z,17.27
2018-09-15T22:46:39.198Z,18.37
2018-09-15T22:49:07.811Z,17.70
2018-09-15T22:51:36.407Z,18.00
2018-09-15T22:54:05.074Z,18.63
2018-09-15T22:56:33.712Z,17.80
2018-09-15T22:59:02.408Z,17.40
2018-09-15T23:01:31.445Z,18.27
2018-09-15T23:04:05.916Z,17.73
2018-09-15T23:06:34.947Z,18.13
2018-09-15T23:09:05.608Z,18.50
2018-09-15T23:11:34.277Z,18.73
2018-09-15T23:14:02.985Z,18.17
2018-09-15T23:16:31.648Z,18.90
2018-09-15T23:19:00.555Z,17.53
2018-09-15T23:21:29.204Z,18.87
2018-09-15T23:23:58.227Z,18.30
2018-09-15T23:26:26.878Z,18.07
2018-09-15T23:28:55.475Z,18.43
2018-09-15T23:31:24.294Z,18.10
2018-09-15T23:33:52.979Z,18.87
2018-09-15T23:36:21.575Z,18.00
2018-09-15T23:38:50.102Z,20.30
2018-09-15T23:41:18.713Z,20.63
2018-09-15T23:43:47.325Z,20.80
2018-09-15T23:46:15.971Z,21.03
2018-09-15T23:48:44.594Z,20.83
2018-09-15T23:51:13.151Z,20.70
2018-09-15T23:53:41.733Z,20.50
2018-09-15T23:56:10.497Z,20.93
2018-09-15T23:58:39.357Z,20.93
